sensor_id;sensor_type;location;lat;lon;timestamp;P1;durP1;ratioP1;P2;durP2;ratioP2
7941;SDS011;4016;50.758;7.150;2023-02-18T00:04:50;3.30;;;2.63;;
7941;SDS011;4016;50.758;7.150;2023-02-18T00:09:53;3.30;;;2.90;;
7941;SDS011;4016;50.758;7.150;2023-02-18T00:14:54;3.10;;;2.80;;
7941;SDS011;4016;50.758;7.150;2023-02-18T00:19:54;4.00;;;2.60;;
7941;SDS011;4016;50.758;7.150;2023-02-18T00:24:56;4.23;;;2.80;;
7941;SDS011;4016;50.758;7.150;2023-02-18T00:29:56;3.10;;;2.70;;
7941;SDS011;4016;50.758;7.150;2023-02-18T00:34:58;3.30;;;2.67;;
7941;SDS011;4016;50.758;7.150;2023-02-18T00:39:58;3.00;;;2.30;;
7941;SDS011;4016;50.758;7.150;2023-02-18T00:44:58;3.10;;;2.80;;
7941;SDS011;4016;50.758;7.150;2023-02-18T00:49:59;3.27;;;2.63;;
7941;SDS011;4016;50.758;7.150;2023-02-18T00:54:59;2.60;;;2.40;;
7941;SDS011;4016;50.758;7.150;2023-02-18T00:59:59;3.00;;;2.70;;
7941;SDS011;4016;50.758;7.150;2023-02-18T01:05:00;5.07;;;2.70;;
7941;SDS011;4016;50.758;7.150;2023-02-18T01:10:00;3.67;;;2.70;;
7941;SDS011;4016;50.758;7.150;2023-02-18T01:15:01;3.40;;;3.10;;
7941;SDS011;4016;50.758;7.150;2023-02-18T01:20:02;2.63;;;2.43;;
7941;SDS011;4016;50.758;7.150;2023-02-18T01:25:02;2.73;;;2.47;;
7941;SDS011;4016;50.758;7.150;2023-02-18T01:30:04;3.03;;;2.60;;
7941;SDS011;4016;50.758;7.150;2023-02-18T01:35:06;2.50;;;2.30;;
7941;SDS011;4016;50.758;7.150;2023-02-18T01:40:07;2.73;;;2.47;;
7941;SDS011;4016;50.758;7.150;2023-02-18T01:50:38;2.33;;;2.13;;
7941;SDS011;4016;50.758;7.150;2023-02-18T01:55:42;2.30;;;2.10;;
7941;SDS011;4016;50.758;7.150;2023-02-18T02:00:43;2.40;;;2.03;;
7941;SDS011;4016;50.758;7.150;2023-02-18T02:05:43;2.27;;;2.07;;
7941;SDS011;4016;50.758;7.150;2023-02-18T02:10:58;2.13;;;1.93;;
7941;SDS011;4016;50.758;7.150;2023-02-18T02:16:16;2.33;;;2.13;;
7941;SDS011;4016;50.758;7.150;2023-02-18T02:21:39;1.40;;;1.33;;
7941;SDS011;4016;50.758;7.150;2023-02-18T02:27:18;1.80;;;1.70;;
7941;SDS011;4016;50.758;7.150;2023-02-18T02:38:01;3.13;;;2.40;;
7941;SDS011;4016;50.758;7.150;2023-02-18T02:43:10;1.83;;;1.73;;
7941;SDS011;4016;50.758;7.150;2023-02-18T02:48:28;1.93;;;1.83;;
7941;SDS011;4016;50.758;7.150;2023-02-18T02:53:36;1.97;;;1.57;;
7941;SDS011;4016;50.758;7.150;2023-02-18T02:58:39;1.60;;;1.50;;
7941;SDS011;4016;50.758;7.150;2023-02-18T03:04:04;1.80;;;1.53;;
7941;SDS011;4016;50.758;7.150;2023-02-18T03:09:40;2.53;;;1.53;;
7941;SDS011;4016;50.758;7.150;2023-02-18T03:20:12;1.50;;;1.40;;
7941;SDS011;4016;50.758;7.150;2023-02-18T03:25:20;1.43;;;1.33;;
7941;SDS011;4016;50.758;7.150;2023-02-18T03:30:27;3.90;;;1.13;;
7941;SDS011;4016;50.758;7.150;2023-02-18T03:35:41;0.60;;;0.60;;
7941;SDS011;4016;50.758;7.150;2023-02-18T03:40:43;0.63;;;0.63;;
7941;SDS011;4016;50.758;7.150;2023-02-18T03:45:44;1.10;;;0.70;;
7941;SDS011;4016;50.758;7.150;2023-02-18T03:50:44;0.80;;;0.80;;
7941;SDS011;4016;50.758;7.150;2023-02-18T03:55:44;0.70;;;0.70;;
7941;SDS011;4016;50.758;7.150;2023-02-18T04:00:45;1.40;;;0.50;;
7941;SDS011;4016;50.758;7.150;2023-02-18T04:05:45;0.33;;;0.30;;
7941;SDS011;4016;50.758;7.150;2023-02-18T04:10:47;0.47;;;0.47;;
7941;SDS011;4016;50.758;7.150;2023-02-18T04:15:50;0.63;;;0.60;;
7941;SDS011;4016;50.758;7.150;2023-02-18T04:20:51;0.50;;;0.50;;
7941;SDS011;4016;50.758;7.150;2023-02-18T04:25:51;0.40;;;0.40;;
7941;SDS011;4016;50.758;7.150;2023-02-18T04:30:52;0.30;;;0.30;;
7941;SDS011;4016;50.758;7.150;2023-02-18T04:35:52;0.40;;;0.40;;
7941;SDS011;4016;50.758;7.150;2023-02-18T04:40:52;0.40;;;0.40;;
7941;SDS011;4016;50.758;7.150;2023-02-18T04:45:53;0.30;;;0.30;;
7941;SDS011;4016;50.758;7.150;2023-02-18T04:50:53;0.30;;;0.30;;
7941;SDS011;4016;50.758;7.150;2023-02-18T04:55:54;0.40;;;0.40;;
7941;SDS011;4016;50.758;7.150;2023-02-18T05:00:57;0.40;;;0.40;;
7941;SDS011;4016;50.758;7.150;2023-02-18T05:06:02;1.10;;;0.60;;
7941;SDS011;4016;50.758;7.150;2023-02-18T05:11:08;0.40;;;0.40;;
7941;SDS011;4016;50.758;7.150;2023-02-18T05:16:09;0.60;;;0.50;;
7941;SDS011;4016;50.758;7.150;2023-02-18T05:21:09;0.27;;;0.27;;
7941;SDS011;4016;50.758;7.150;2023-02-18T05:26:11;0.20;;;0.20;;
7941;SDS011;4016;50.758;7.150;2023-02-18T05:31:11;0.40;;;0.40;;
7941;SDS011;4016;50.758;7.150;2023-02-18T05:36:11;0.37;;;0.37;;
7941;SDS011;4016;50.758;7.150;2023-02-18T05:41:12;0.33;;;0.33;;
7941;SDS011;4016;50.758;7.150;2023-02-18T05:46:12;0.47;;;0.47;;
7941;SDS011;4016;50.758;7.150;2023-02-18T05:51:13;0.30;;;0.30;;
7941;SDS011;4016;50.758;7.150;2023-02-18T05:56:14;0.53;;;0.53;;
7941;SDS011;4016;50.758;7.150;2023-02-18T06:01:14;0.53;;;0.43;;
7941;SDS011;4016;50.758;7.150;2023-02-18T06:06:15;0.30;;;0.30;;
7941;SDS011;4016;50.758;7.150;2023-02-18T06:11:15;0.33;;;0.33;;
7941;SDS011;4016;50.758;7.150;2023-02-18T06:16:15;0.43;;;0.43;;
7941;SDS011;4016;50.758;7.150;2023-02-18T06:21:16;0.43;;;0.43;;
7941;SDS011;4016;50.758;7.150;2023-02-18T06:26:16;0.30;;;0.30;;
7941;SDS011;4016;50.758;7.150;2023-02-18T06:31:16;0.40;;;0.40;;
7941;SDS011;4016;50.758;7.150;2023-02-18T06:36:17;0.30;;;0.30;;
7941;SDS011;4016;50.758;7.150;2023-02-18T06:41:18;0.40;;;0.40;;
7941;SDS011;4016;50.758;7.150;2023-02-18T06:46:18;0.37;;;0.37;;
7941;SDS011;4016;50.758;7.150;2023-02-18T06:51:18;0.30;;;0.30;;
7941;SDS011;4016;50.758;7.150;2023-02-18T06:56:19;0.30;;;0.30;;
7941;SDS011;4016;50.758;7.150;2023-02-18T07:01:19;0.40;;;0.40;;
7941;SDS011;4016;50.758;7.150;2023-02-18T07:06:19;0.30;;;0.30;;
7941;SDS011;4016;50.758;7.150;2023-02-18T07:11:20;0.33;;;0.33;;
7941;SDS011;4016;50.758;7.150;2023-02-18T07:16:20;0.67;;;0.30;;
7941;SDS011;4016;50.758;7.150;2023-02-18T07:21:21;0.30;;;0.30;;
7941;SDS011;4016;50.758;7.150;2023-02-18T07:26:21;0.40;;;0.40;;
7941;SDS011;4016;50.758;7.150;2023-02-18T07:31:22;0.20;;;0.20;;
7941;SDS011;4016;50.758;7.150;2023-02-18T07:36:22;0.30;;;0.30;;
7941;SDS011;4016;50.758;7.150;2023-02-18T07:41:22;0.40;;;0.40;;
7941;SDS011;4016;50.758;7.150;2023-02-18T07:46:23;0.50;;;0.50;;
7941;SDS011;4016;50.758;7.150;2023-02-18T07:51:23;0.60;;;0.60;;
7941;SDS011;4016;50.758;7.150;2023-02-18T07:56:24;0.47;;;0.47;;
7941;SDS011;4016;50.758;7.150;2023-02-18T08:01:24;0.47;;;0.47;;
7941;SDS011;4016;50.758;7.150;2023-02-18T08:06:30;0.93;;;0.57;;
7941;SDS011;4016;50.758;7.150;2023-02-18T08:11:33;0.60;;;0.60;;
7941;SDS011;4016;50.758;7.150;2023-02-18T08:16:34;0.40;;;0.40;;
7941;SDS011;4016;50.758;7.150;2023-02-18T08:21:34;0.50;;;0.50;;
7941;SDS011;4016;50.758;7.150;2023-02-18T08:26:35;0.50;;;0.50;;
7941;SDS011;4016;50.758;7.150;2023-02-18T08:31:35;0.43;;;0.43;;
7941;SDS011;4016;50.758;7.150;2023-02-18T08:36:35;0.70;;;0.70;;
7941;SDS011;4016;50.758;7.150;2023-02-18T08:41:36;0.90;;;0.90;;
7941;SDS011;4016;50.758;7.150;2023-02-18T08:46:36;1.37;;;1.27;;
7941;SDS011;4016;50.758;7.150;2023-02-18T08:51:36;2.37;;;1.80;;
7941;SDS011;4016;50.758;7.150;2023-02-18T08:56:37;3.03;;;2.23;;
7941;SDS011;4016;50.758;7.150;2023-02-18T09:01:38;1.80;;;1.70;;
7941;SDS011;4016;50.758;7.150;2023-02-18T09:06:38;1.97;;;1.77;;
7941;SDS011;4016;50.758;7.150;2023-02-18T09:11:39;5.03;;;2.20;;
7941;SDS011;4016;50.758;7.150;2023-02-18T09:16:40;1.63;;;1.53;;
7941;SDS011;4016;50.758;7.150;2023-02-18T09:21:40;2.30;;;2.10;;
7941;SDS011;4016;50.758;7.150;2023-02-18T09:26:41;1.90;;;1.57;;
7941;SDS011;4016;50.758;7.150;2023-02-18T09:31:41;1.43;;;1.33;;
7941;SDS011;4016;50.758;7.150;2023-02-18T09:36:41;1.97;;;1.47;;
7941;SDS011;4016;50.758;7.150;2023-02-18T09:41:46;2.83;;;1.53;;
7941;SDS011;4016;50.758;7.150;2023-02-18T09:57:35;2.77;;;2.00;;
7941;SDS011;4016;50.758;7.150;2023-02-18T10:02:48;2.43;;;2.07;;
7941;SDS011;4016;50.758;7.150;2023-02-18T10:08:18;3.23;;;1.77;;
7941;SDS011;4016;50.758;7.150;2023-02-18T10:13:24;2.47;;;1.73;;
7941;SDS011;4016;50.758;7.150;2023-02-18T10:18:31;4.23;;;2.50;;
7941;SDS011;4016;50.758;7.150;2023-02-18T10:23:37;2.53;;;1.57;;
7941;SDS011;4016;50.758;7.150;2023-02-18T10:28:40;4.60;;;1.97;;
7941;SDS011;4016;50.758;7.150;2023-02-18T10:44:36;1.70;;;1.60;;
7941;SDS011;4016;50.758;7.150;2023-02-18T10:50:00;3.37;;;1.80;;
7941;SDS011;4016;50.758;7.150;2023-02-18T10:55:05;1.90;;;1.80;;
7941;SDS011;4016;50.758;7.150;2023-02-18T11:05:33;2.37;;;1.43;;
7941;SDS011;4016;50.758;7.150;2023-02-18T11:10:34;2.03;;;1.70;;
7941;SDS011;4016;50.758;7.150;2023-02-18T11:15:55;1.80;;;1.70;;
7941;SDS011;4016;50.758;7.150;2023-02-18T11:20:57;1.43;;;1.33;;
7941;SDS011;4016;50.758;7.150;2023-02-18T11:26:06;1.13;;;1.13;;
7941;SDS011;4016;50.758;7.150;2023-02-18T11:31:22;1.20;;;1.07;;
7941;SDS011;4016;50.758;7.150;2023-02-18T11:36:29;1.20;;;1.13;;
7941;SDS011;4016;50.758;7.150;2023-02-18T11:41:35;1.10;;;1.10;;
7941;SDS011;4016;50.758;7.150;2023-02-18T11:46:37;2.20;;;1.67;;
7941;SDS011;4016;50.758;7.150;2023-02-18T11:52:39;1.30;;;1.20;;
7941;SDS011;4016;50.758;7.150;2023-02-18T11:57:24;1.50;;;1.40;;
7941;SDS011;4016;50.758;7.150;2023-02-18T12:02:33;0.87;;;0.87;;
7941;SDS011;4016;50.758;7.150;2023-02-18T12:12:55;1.20;;;1.10;;
7941;SDS011;4016;50.758;7.150;2023-02-18T12:18:09;1.53;;;1.20;;
7941;SDS011;4016;50.758;7.150;2023-02-18T12:23:34;1.27;;;1.23;;
7941;SDS011;4016;50.758;7.150;2023-02-18T12:34:26;1.23;;;1.13;;
7941;SDS011;4016;50.758;7.150;2023-02-18T13:06:19;1.27;;;1.17;;
7941;SDS011;4016;50.758;7.150;2023-02-18T13:11:28;1.13;;;1.03;;
7941;SDS011;4016;50.758;7.150;2023-02-18T13:16:30;0.80;;;0.80;;
7941;SDS011;4016;50.758;7.150;2023-02-18T13:21:32;0.83;;;0.83;;
7941;SDS011;4016;50.758;7.150;2023-02-18T13:26:36;0.80;;;0.80;;
7941;SDS011;4016;50.758;7.150;2023-02-18T13:31:45;0.83;;;0.83;;
7941;SDS011;4016;50.758;7.150;2023-02-18T13:47:42;1.00;;;0.90;;
7941;SDS011;4016;50.758;7.150;2023-02-18T13:52:44;1.30;;;1.20;;
7941;SDS011;4016;50.758;7.150;2023-02-18T13:57:46;1.20;;;0.90;;
7941;SDS011;4016;50.758;7.150;2023-02-18T14:02:54;1.20;;;1.07;;
7941;SDS011;4016;50.758;7.150;2023-02-18T14:13:20;0.90;;;0.90;;
7941;SDS011;4016;50.758;7.150;2023-02-18T14:28:48;0.50;;;0.50;;
7941;SDS011;4016;50.758;7.150;2023-02-18T14:39:08;0.73;;;0.73;;
7941;SDS011;4016;50.758;7.150;2023-02-18T14:49:39;0.57;;;0.57;;
7941;SDS011;4016;50.758;7.150;2023-02-18T14:54:43;0.40;;;0.40;;
7941;SDS011;4016;50.758;7.150;2023-02-18T14:59:45;0.73;;;0.63;;
7941;SDS011;4016;50.758;7.150;2023-02-18T15:04:45;0.87;;;0.87;;
7941;SDS011;4016;50.758;7.150;2023-02-18T15:09:47;0.70;;;0.70;;
7941;SDS011;4016;50.758;7.150;2023-02-18T15:14:51;0.73;;;0.73;;
7941;SDS011;4016;50.758;7.150;2023-02-18T15:19:57;0.83;;;0.83;;
7941;SDS011;4016;50.758;7.150;2023-02-18T15:25:04;1.00;;;1.00;;
7941;SDS011;4016;50.758;7.150;2023-02-18T15:35:30;0.80;;;0.80;;
7941;SDS011;4016;50.758;7.150;2023-02-18T15:40:32;0.70;;;0.67;;
7941;SDS011;4016;50.758;7.150;2023-02-18T15:45:40;1.20;;;0.90;;
7941;SDS011;4016;50.758;7.150;2023-02-18T15:50:45;1.37;;;1.07;;
7941;SDS011;4016;50.758;7.150;2023-02-18T15:55:50;2.87;;;0.70;;
7941;SDS011;4016;50.758;7.150;2023-02-18T16:11:23;0.77;;;0.77;;
7941;SDS011;4016;50.758;7.150;2023-02-18T16:16:30;0.63;;;0.63;;
7941;SDS011;4016;50.758;7.150;2023-02-18T16:21:36;0.83;;;0.83;;
7941;SDS011;4016;50.758;7.150;2023-02-18T16:31:39;1.63;;;1.47;;
7941;SDS011;4016;50.758;7.150;2023-02-18T16:36:39;0.73;;;0.73;;
7941;SDS011;4016;50.758;7.150;2023-02-18T16:42:00;0.90;;;0.90;;
7941;SDS011;4016;50.758;7.150;2023-02-18T16:47:01;0.70;;;0.70;;
7941;SDS011;4016;50.758;7.150;2023-02-18T16:52:04;0.80;;;0.80;;
7941;SDS011;4016;50.758;7.150;2023-02-18T16:57:07;0.93;;;0.93;;
7941;SDS011;4016;50.758;7.150;2023-02-18T17:02:14;0.70;;;0.70;;
7941;SDS011;4016;50.758;7.150;2023-02-18T17:07:19;1.47;;;1.23;;
7941;SDS011;4016;50.758;7.150;2023-02-18T17:12:20;1.43;;;1.33;;
7941;SDS011;4016;50.758;7.150;2023-02-18T17:17:20;0.93;;;0.93;;
7941;SDS011;4016;50.758;7.150;2023-02-18T17:22:22;0.70;;;0.70;;
7941;SDS011;4016;50.758;7.150;2023-02-18T17:27:22;1.57;;;1.37;;
7941;SDS011;4016;50.758;7.150;2023-02-18T17:32:23;1.10;;;1.10;;
7941;SDS011;4016;50.758;7.150;2023-02-18T17:37:23;1.23;;;1.17;;
7941;SDS011;4016;50.758;7.150;2023-02-18T17:42:24;1.27;;;1.17;;
7941;SDS011;4016;50.758;7.150;2023-02-18T17:47:24;1.60;;;1.20;;
7941;SDS011;4016;50.758;7.150;2023-02-18T17:52:28;1.10;;;1.10;;
7941;SDS011;4016;50.758;7.150;2023-02-18T17:57:29;1.63;;;1.53;;
7941;SDS011;4016;50.758;7.150;2023-02-18T18:02:30;1.93;;;1.73;;
7941;SDS011;4016;50.758;7.150;2023-02-18T18:07:30;1.43;;;1.33;;
7941;SDS011;4016;50.758;7.150;2023-02-18T18:12:30;1.60;;;1.27;;
7941;SDS011;4016;50.758;7.150;2023-02-18T18:17:31;1.60;;;1.50;;
7941;SDS011;4016;50.758;7.150;2023-02-18T18:22:31;1.37;;;1.30;;
7941;SDS011;4016;50.758;7.150;2023-02-18T18:27:32;1.60;;;1.50;;
7941;SDS011;4016;50.758;7.150;2023-02-18T18:32:32;1.87;;;1.70;;
7941;SDS011;4016;50.758;7.150;2023-02-18T18:37:32;1.70;;;1.60;;
7941;SDS011;4016;50.758;7.150;2023-02-18T18:42:33;1.60;;;1.50;;
7941;SDS011;4016;50.758;7.150;2023-02-18T18:47:33;1.90;;;1.70;;
7941;SDS011;4016;50.758;7.150;2023-02-18T18:52:33;1.47;;;1.37;;
7941;SDS011;4016;50.758;7.150;2023-02-18T18:57:34;1.53;;;1.43;;
7941;SDS011;4016;50.758;7.150;2023-02-18T19:02:34;2.10;;;1.63;;
7941;SDS011;4016;50.758;7.150;2023-02-18T19:07:35;2.00;;;1.80;;
7941;SDS011;4016;50.758;7.150;2023-02-18T19:12:35;1.70;;;1.60;;
7941;SDS011;4016;50.758;7.150;2023-02-18T19:17:35;2.67;;;1.47;;
7941;SDS011;4016;50.758;7.150;2023-02-18T19:22:36;1.53;;;1.43;;
7941;SDS011;4016;50.758;7.150;2023-02-18T19:27:37;1.37;;;1.27;;
7941;SDS011;4016;50.758;7.150;2023-02-18T19:32:38;1.70;;;1.50;;
7941;SDS011;4016;50.758;7.150;2023-02-18T19:37:39;2.57;;;1.73;;
7941;SDS011;4016;50.758;7.150;2023-02-18T19:42:39;1.43;;;1.33;;
7941;SDS011;4016;50.758;7.150;2023-02-18T19:47:40;1.70;;;1.60;;
7941;SDS011;4016;50.758;7.150;2023-02-18T19:52:40;1.20;;;1.10;;
7941;SDS011;4016;50.758;7.150;2023-02-18T19:57:41;1.10;;;1.00;;
7941;SDS011;4016;50.758;7.150;2023-02-18T20:02:41;0.87;;;0.87;;
7941;SDS011;4016;50.758;7.150;2023-02-18T20:07:42;1.00;;;1.00;;
7941;SDS011;4016;50.758;7.150;2023-02-18T20:12:49;1.40;;;1.30;;
7941;SDS011;4016;50.758;7.150;2023-02-18T20:17:51;1.07;;;0.97;;
7941;SDS011;4016;50.758;7.150;2023-02-18T20:22:51;1.47;;;1.37;;
7941;SDS011;4016;50.758;7.150;2023-02-18T20:27:52;1.73;;;1.63;;
7941;SDS011;4016;50.758;7.150;2023-02-18T20:32:52;1.93;;;1.83;;
7941;SDS011;4016;50.758;7.150;2023-02-18T20:37:52;1.63;;;1.53;;
7941;SDS011;4016;50.758;7.150;2023-02-18T20:42:53;1.67;;;1.40;;
7941;SDS011;4016;50.758;7.150;2023-02-18T20:47:53;1.80;;;1.70;;
7941;SDS011;4016;50.758;7.150;2023-02-18T20:52:54;1.83;;;1.33;;
7941;SDS011;4016;50.758;7.150;2023-02-18T20:57:54;0.90;;;0.90;;
7941;SDS011;4016;50.758;7.150;2023-02-18T21:02:54;0.77;;;0.77;;
7941;SDS011;4016;50.758;7.150;2023-02-18T21:07:55;0.90;;;0.90;;
7941;SDS011;4016;50.758;7.150;2023-02-18T21:12:55;0.97;;;0.97;;
7941;SDS011;4016;50.758;7.150;2023-02-18T21:17:55;1.00;;;1.00;;
7941;SDS011;4016;50.758;7.150;2023-02-18T21:22:56;1.33;;;1.23;;
7941;SDS011;4016;50.758;7.150;2023-02-18T21:27:56;1.10;;;1.10;;
7941;SDS011;4016;50.758;7.150;2023-02-18T21:32:56;0.70;;;0.70;;
7941;SDS011;4016;50.758;7.150;2023-02-18T21:37:57;1.03;;;1.03;;
7941;SDS011;4016;50.758;7.150;2023-02-18T21:42:58;1.37;;;1.10;;
7941;SDS011;4016;50.758;7.150;2023-02-18T21:47:58;1.50;;;1.40;;
7941;SDS011;4016;50.758;7.150;2023-02-18T21:53:18;1.37;;;1.27;;
7941;SDS011;4016;50.758;7.150;2023-02-18T21:58:19;1.03;;;1.03;;
7941;SDS011;4016;50.758;7.150;2023-02-18T22:03:19;1.23;;;1.23;;
7941;SDS011;4016;50.758;7.150;2023-02-18T22:08:19;1.53;;;1.43;;
7941;SDS011;4016;50.758;7.150;2023-02-18T22:13:20;1.30;;;1.27;;
7941;SDS011;4016;50.758;7.150;2023-02-18T22:18:20;3.20;;;2.07;;
7941;SDS011;4016;50.758;7.150;2023-02-18T22:23:21;1.33;;;1.07;;
7941;SDS011;4016;50.758;7.150;2023-02-18T22:28:21;1.50;;;1.40;;
7941;SDS011;4016;50.758;7.150;2023-02-18T22:33:22;2.00;;;1.67;;
7941;SDS011;4016;50.758;7.150;2023-02-18T22:38:22;2.10;;;1.90;;
7941;SDS011;4016;50.758;7.150;2023-02-18T22:43:22;1.67;;;1.57;;
7941;SDS011;4016;50.758;7.150;2023-02-18T22:48:23;1.80;;;1.50;;
7941;SDS011;4016;50.758;7.150;2023-02-18T22:53:23;2.10;;;1.83;;
7941;SDS011;4016;50.758;7.150;2023-02-18T22:58:24;3.03;;;1.97;;
7941;SDS011;4016;50.758;7.150;2023-02-18T23:03:25;1.57;;;1.47;;
7941;SDS011;4016;50.758;7.150;2023-02-18T23:08:26;2.30;;;1.70;;
7941;SDS011;4016;50.758;7.150;2023-02-18T23:13:26;1.87;;;1.77;;
7941;SDS011;4016;50.758;7.150;2023-02-18T23:18:27;2.27;;;1.93;;
7941;SDS011;4016;50.758;7.150;2023-02-18T23:23:29;1.97;;;1.87;;
7941;SDS011;4016;50.758;7.150;2023-02-18T23:28:29;1.20;;;1.10;;
7941;SDS011;4016;50.758;7.150;2023-02-18T23:33:46;1.37;;;1.20;;
7941;SDS011;4016;50.758;7.150;2023-02-18T23:38:49;1.07;;;1.07;;
7941;SDS011;4016;50.758;7.150;2023-02-18T23:43:52;1.23;;;1.13;;
7941;SDS011;4016;50.758;7.150;2023-02-18T23:48:52;0.73;;;0.73;;
7941;SDS011;4016;50.758;7.150;2023-02-18T23:53:53;1.23;;;1.17;;
7941;SDS011;4016;50.758;7.150;2023-02-18T23:58:54;0.90;;;0.90;;
